createdAt,value
2024-01-01T00:00:33.379Z,64.73
2024-01-01T00:03:21.365Z,57.11
2024-01-01T00:05:50.102Z,51.44
2024-01-01T00:08:17.964Z,52.55
2024-01-01T00:10:46.860Z,57.92
2024-01-01T00:13:14.828Z,59.58
2024-01-01T00:15:43.094Z,59.98
2024-01-01T00:18:11.188Z,61.93
2024-01-01T00:20:40.269Z,66.64
2024-01-01T00:23:08.721Z,67.91
2024-01-01T00:25:37.761Z,63.05
2024-01-01T00:28:07.579Z,52.96
2024-01-01T00:30:39.295Z,51.38
2024-01-01T00:33:07.517Z,53.56
2024-01-01T00:35:36.031Z,57.17
2024-01-01T00:38:04.764Z,59.32
2024-01-01T00:40:33.199Z,62.18
2024-01-01T00:43:01.184Z,67.70
2024-01-01T00:45:37.002Z,65.44
2024-01-01T00:48:11.378Z,61.45
2024-01-01T00:50:39.771Z,53.78
2024-01-01T00:53:07.676Z,51.91
2024-01-01T00:55:35.916Z,54.00
2024-01-01T00:58:08.652Z,57.83
2024-01-01T01:00:37.197Z,59.58
2024-01-01T01:03:05.917Z,60.26
2024-01-01T01:05:33.969Z,60.55
2024-01-01T01:08:02.487Z,66.24
2024-01-01T01:10:30.680Z,68.75
2024-01-01T01:12:58.660Z,63.85
2024-01-01T01:15:28.326Z,57.87
2024-01-01T01:17:57.350Z,53.54
2024-01-01T01:20:25.353Z,54.81
2024-01-01T01:22:53.864Z,57.54
2024-01-01T01:25:21.974Z,59.73
2024-01-01T01:27:49.755Z,60.48
2024-01-01T01:30:18.006Z,65.53
2024-01-01T01:32:46.451Z,67.63
2024-01-01T01:35:15.626Z,65.25
2024-01-01T01:37:46.624Z,60.38
2024-01-01T01:40:14.754Z,52.56
2024-01-01T01:42:48.262Z,51.68
2024-01-01T01:45:16.237Z,53.44
2024-01-01T01:47:45.778Z,56.04
2024-01-01T01:50:15.206Z,57.47
2024-01-01T01:52:45.428Z,61.13
2024-01-01T01:55:15.077Z,68.16
2024-01-01T01:57:44.962Z,66.90
2024-01-01T02:00:14.549Z,63.05
2024-01-01T02:02:44.098Z,57.49
2024-01-01T02:05:12.286Z,51.93
2024-01-01T02:07:42.693Z,52.41
2024-01-01T02:10:11.869Z,53.77
2024-01-01T02:12:40.001Z,56.81
2024-01-01T02:15:08.797Z,64.74
2024-01-01T02:17:36.851Z,66.39
2024-01-01T02:20:14.404Z,64.13
2024-01-01T02:22:47.227Z,58.97
2024-01-01T02:25:17.708Z,52.66
2024-01-01T02:27:45.624Z,51.54
2024-01-01T02:30:13.753Z,52.27
2024-01-01T02:32:41.848Z,54.21
2024-01-01T02:35:10.401Z,57.14
2024-01-01T02:37:40.006Z,62.66
2024-01-01T02:40:10.088Z,66.88
2024-01-01T02:42:38.699Z,66.41
2024-01-01T02:45:08.636Z,63.14
2024-01-01T02:47:36.764Z,54.06
2024-01-01T02:50:05.843Z,52.28
2024-01-01T02:52:34.181Z,53.58
2024-01-01T02:55:02.116Z,55.01
2024-01-01T02:57:30.002Z,56.35
2024-01-01T02:59:58.192Z,62.72
2024-01-01T03:02:26.394Z,69.58
2024-01-01T03:04:54.296Z,65.18
2024-01-01T03:07:23.458Z,60.81
2024-01-01T03:09:52.166Z,53.85
2024-01-01T03:12:20.034Z,51.42
2024-01-01T03:14:48.373Z,53.35
2024-01-01T03:17:16.500Z,55.99
2024-01-01T03:19:44.456Z,56.14
2024-01-01T03:22:12.870Z,57.67
2024-01-01T03:24:41.030Z,67.40
2024-01-01T03:27:08.867Z,68.35
2024-01-01T03:29:36.677Z,64.60
2024-01-01T03:32:05.543Z,55.22
2024-01-01T03:34:34.502Z,52.35
2024-01-01T03:37:02.971Z,55.89
2024-01-01T03:39:31.105Z,57.48
2024-01-01T03:41:59.133Z,60.48
2024-01-01T03:44:27.011Z,63.00
2024-01-01T03:46:54.971Z,68.31
2024-01-01T03:49:22.977Z,65.24
2024-01-01T03:51:51.127Z,60.78
2024-01-01T03:54:19.320Z,54.12
2024-01-01T03:56:47.419Z,50.67
2024-01-01T03:59:15.484Z,51.47
2024-01-01T04:01:43.732Z,54.65
2024-01-01T04:04:12.159Z,57.42
2024-01-01T04:06:40.115Z,59.64
2024-01-01T04:09:08.781Z,61.31
2024-01-01T04:11:36.623Z,67.28
2024-01-01T04:14:04.942Z,70.26
2024-01-01T04:16:33.341Z,59.76
2024-01-01T04:19:01.296Z,53.51
2024-01-01T04:21:29.697Z,52.65
2024-01-01T04:23:59.527Z,56.44
2024-01-01T04:26:27.447Z,58.11
2024-01-01T04:28:55.368Z,59.40
2024-01-01T04:31:23.448Z,65.59
2024-01-01T04:33:51.431Z,67.11
2024-01-01T04:36:19.571Z,64.21
2024-01-01T04:38:49.269Z,56.17
2024-01-01T04:41:17.367Z,51.96
2024-01-01T04:43:46.179Z,53.08
2024-01-01T04:46:14.719Z,57.12
2024-01-01T04:48:42.619Z,58.21
2024-01-01T04:51:10.806Z,58.70
2024-01-01T04:53:40.720Z,61.73
2024-01-01T04:56:08.543Z,71.15
2024-01-01T04:58:36.417Z,71.28
2024-01-01T05:01:04.554Z,66.86
2024-01-01T05:03:33.821Z,61.69
2024-01-01T05:06:02.191Z,52.46
2024-01-01T05:08:31.488Z,49.47
2024-01-01T05:10:59.621Z,50.90
2024-01-01T05:13:27.605Z,52.83
2024-01-01T05:15:55.985Z,57.11
2024-01-01T05:18:24.043Z,59.29
2024-01-01T05:20:52.977Z,59.54
2024-01-01T05:23:21.329Z,60.24
2024-01-01T05:25:49.354Z,66.07
2024-01-01T05:28:17.304Z,71.91
2024-01-01T05:30:45.497Z,65.42
2024-01-01T05:33:14.890Z,61.27
2024-01-01T05:35:43.161Z,55.01
2024-01-01T05:38:11.349Z,50.86
2024-01-01T05:40:40.300Z,53.22
2024-01-01T05:43:10.343Z,55.51
2024-01-01T05:45:38.216Z,58.26
2024-01-01T05:48:07.113Z,60.15
2024-01-01T05:50:35.500Z,63.22
2024-01-01T05:53:04.968Z,71.53
2024-01-01T05:55:36.566Z,67.91
2024-01-01T05:58:05.077Z,60.50
2024-01-01T06:00:38.156Z,51.28
2024-01-01T06:03:06.439Z,50.17
2024-01-01T06:05:37.079Z,53.32
2024-01-01T06:08:06.578Z,53.40
2024-01-01T06:10:36.006Z,57.24
2024-01-01T06:13:04.429Z,57.82
2024-01-01T06:15:32.920Z,60.54
2024-01-01T06:18:01.100Z,59.88
2024-01-01T06:20:29.034Z,61.49
2024-01-01T06:22:56.964Z,67.39
2024-01-01T06:25:25.426Z,73.37
2024-01-01T06:27:53.294Z,64.15
2024-01-01T06:30:21.711Z,56.07
2024-01-01T06:32:49.977Z,51.02
2024-01-01T06:35:19.627Z,55.09
2024-01-01T06:37:47.482Z,58.78
2024-01-01T06:40:16.257Z,59.90
2024-01-01T06:42:44.081Z,61.67
2024-01-01T06:45:11.928Z,68.85
2024-01-01T06:47:40.428Z,65.69
2024-01-01T06:50:09.710Z,61.95
2024-01-01T06:52:37.952Z,50.70
2024-01-01T06:55:06.669Z,49.59
2024-01-01T06:57:34.579Z,52.54
2024-01-01T07:00:03.800Z,53.27
2024-01-01T07:02:32.066Z,56.23
2024-01-01T07:05:00.360Z,59.68
2024-01-01T07:07:28.391Z,65.94
2024-01-01T07:09:56.772Z,67.21
2024-01-01T07:12:28.247Z,60.68
2024-01-01T07:14:56.686Z,52.08
2024-01-01T07:17:25.146Z,52.05
2024-01-01T07:19:53.932Z,58.39
2024-01-01T07:22:22.233Z,60.08
2024-01-01T07:24:50.730Z,60.50
2024-01-01T07:27:18.951Z,68.10
2024-01-01T07:29:47.912Z,68.43
2024-01-01T07:32:16.762Z,63.08
2024-01-01T07:34:44.790Z,53.53
2024-01-01T07:37:12.760Z,51.22
2024-01-01T07:39:43.120Z,51.27
2024-01-01T07:42:11.100Z,52.36
2024-01-01T07:44:38.936Z,58.76
2024-01-01T07:47:06.889Z,61.69
2024-01-01T07:49:34.748Z,69.95
2024-01-01T07:52:03.135Z,68.80
2024-01-01T07:54:31.038Z,58.77
2024-01-01T07:56:58.855Z,52.75
2024-01-01T07:59:27.171Z,52.30
2024-01-01T08:01:55.455Z,52.61
2024-01-01T08:04:23.401Z,58.52
2024-01-01T08:06:51.548Z,60.26
2024-01-01T08:09:19.733Z,60.20
2024-01-01T08:11:47.606Z,60.86
2024-01-01T08:14:15.487Z,63.96
2024-01-01T08:16:43.523Z,70.31
2024-01-01T08:19:11.794Z,65.22
2024-01-01T08:21:40.325Z,59.01
2024-01-01T08:24:08.699Z,51.32
2024-01-01T08:26:36.576Z,53.34
2024-01-01T08:29:04.563Z,53.56
2024-01-01T08:31:32.598Z,59.07
2024-01-01T08:34:00.734Z,59.24
2024-01-01T08:36:29.198Z,59.78
2024-01-01T08:38:57.317Z,61.22
2024-01-01T08:41:25.203Z,69.86
2024-01-01T08:43:58.647Z,69.09
2024-01-01T08:46:28.145Z,59.68
2024-01-01T08:48:56.794Z,51.46
2024-01-01T08:51:24.864Z,50.21
2024-01-01T08:53:54.990Z,51.66
2024-01-01T08:56:23.119Z,53.87
2024-01-01T08:58:51.180Z,54.20
2024-01-01T09:01:19.249Z,55.45
2024-01-01T09:03:47.816Z,62.12
2024-01-01T09:06:16.048Z,68.11
2024-01-01T09:08:44.741Z,64.25
2024-01-01T09:11:13.039Z,61.80
2024-01-01T09:13:41.300Z,53.45
2024-01-01T09:16:10.610Z,48.70
2024-01-01T09:18:39.593Z,50.24
2024-01-01T09:21:17.482Z,53.05
2024-01-01T09:23:46.659Z,59.24
2024-01-01T09:26:16.036Z,58.50
2024-01-01T09:28:44.165Z,58.46
2024-01-01T09:31:12.080Z,66.47
2024-01-01T09:33:41.136Z,70.43
2024-01-01T09:36:10.228Z,63.93
2024-01-01T09:38:38.139Z,54.16
2024-01-01T09:41:11.655Z,52.78
2024-01-01T09:43:42.235Z,51.54
2024-01-01T09:46:10.246Z,52.14
2024-01-01T09:48:38.720Z,55.37
2024-01-01T09:51:07.109Z,59.56
2024-01-01T09:53:35.247Z,59.48
2024-01-01T09:56:04.170Z,66.26
2024-01-01T09:58:45.859Z,68.14
2024-01-01T10:01:20.564Z,61.42
2024-01-01T10:04:08.704Z,52.18
2024-01-01T10:06:38.082Z,48.32
2024-01-01T10:09:20.200Z,51.73
2024-01-01T10:11:50.058Z,53.11
2024-01-01T10:14:20.326Z,56.12
2024-01-01T10:16:48.251Z,57.40
2024-01-01T10:19:16.386Z,64.23
2024-01-01T10:21:45.825Z,67.47
2024-01-01T10:24:30.368Z,60.88
2024-01-01T10:27:03.476Z,51.39
2024-01-01T10:29:36.810Z,51.70
2024-01-01T10:32:07.158Z,52.32
2024-01-01T10:34:39.182Z,54.22
2024-01-01T10:37:09.508Z,56.82
2024-01-01T10:39:39.546Z,58.26
2024-01-01T10:42:07.751Z,59.92
2024-01-01T10:44:36.444Z,65.94
2024-01-01T10:47:10.900Z,70.14
2024-01-01T10:49:54.020Z,62.25
2024-01-01T10:52:51.054Z,52.77
2024-01-01T10:56:04.102Z,51.19
2024-01-01T10:59:07.818Z,52.11
2024-01-01T11:01:39.065Z,53.41
2024-01-01T11:04:07.125Z,61.28
2024-01-01T11:06:40.554Z,68.24
2024-01-01T11:09:20.793Z,62.57
2024-01-01T11:11:53.610Z,54.39
2024-01-01T11:14:26.587Z,49.36
2024-01-01T11:17:03.789Z,50.25
2024-01-01T11:19:37.526Z,54.83
2024-01-01T11:22:27.187Z,56.24
2024-01-01T11:24:55.190Z,57.55
2024-01-01T11:27:35.962Z,60.93
2024-01-01T11:30:07.590Z,67.33
2024-01-01T11:32:37.038Z,63.55
2024-01-01T11:35:14.112Z,57.82
2024-01-01T11:37:44.925Z,49.17
2024-01-01T11:40:16.190Z,49.68
2024-01-01T11:42:44.376Z,50.96
2024-01-01T11:45:21.792Z,54.83
2024-01-01T11:47:50.361Z,53.82
2024-01-01T11:50:18.627Z,54.24
2024-01-01T11:53:01.610Z,57.80
2024-01-01T11:55:29.633Z,55.76
2024-01-01T11:57:58.528Z,58.56
2024-01-01T12:00:26.941Z,63.42
2024-01-01T12:02:55.065Z,69.10
2024-01-01T12:05:23.118Z,66.08
2024-01-01T12:07:51.103Z,57.11
2024-01-01T12:10:19.451Z,48.42
2024-01-01T12:12:48.905Z,49.01
2024-01-01T12:15:20.767Z,50.88
2024-01-01T12:17:53.838Z,53.77
2024-01-01T12:20:25.445Z,53.98
2024-01-01T12:22:56.619Z,55.87
2024-01-01T12:25:26.625Z,58.84
2024-01-01T12:28:09.492Z,62.71
2024-01-01T12:30:39.182Z,70.42
2024-01-01T12:33:09.176Z,66.44
2024-01-01T12:35:39.368Z,57.26
2024-01-01T12:38:07.174Z,50.12
2024-01-01T12:40:35.030Z,48.69
2024-01-01T12:43:03.351Z,50.47
2024-01-01T12:45:32.287Z,50.95
2024-01-01T12:48:01.704Z,53.93
2024-01-01T12:50:30.392Z,56.08
2024-01-01T12:52:59.241Z,58.46
2024-01-01T12:55:27.296Z,57.44
2024-01-01T12:57:55.577Z,58.71
2024-01-01T13:00:23.496Z,66.50
2024-01-01T13:02:53.835Z,66.47
2024-01-01T13:05:22.522Z,57.65
2024-01-01T13:07:50.997Z,49.24
2024-01-01T13:10:19.350Z,48.39
2024-01-01T13:12:47.186Z,50.36
2024-01-01T13:15:15.101Z,51.98
2024-01-01T13:17:45.997Z,52.03
2024-01-01T13:20:14.736Z,58.00
2024-01-01T13:22:42.674Z,58.15
2024-01-01T13:25:12.283Z,61.61
2024-01-01T13:27:41.807Z,60.58
2024-01-01T13:30:10.434Z,61.70
2024-01-01T13:32:40.285Z,70.54
2024-01-01T13:35:09.942Z,64.80
2024-01-01T13:37:39.225Z,56.85
2024-01-01T13:40:08.512Z,51.96
2024-01-01T13:42:37.109Z,53.75
2024-01-01T13:45:06.815Z,53.33
2024-01-01T13:47:36.479Z,54.75
2024-01-01T13:50:07.032Z,56.65
2024-01-01T13:52:35.744Z,56.86
2024-01-01T13:55:06.389Z,57.15
2024-01-01T13:57:34.363Z,57.99
2024-01-01T14:00:09.994Z,62.53
2024-01-01T14:02:39.438Z,65.05
2024-01-01T14:05:08.709Z,65.59
2024-01-01T14:07:37.415Z,53.33
2024-01-01T14:10:06.953Z,50.00
2024-01-01T14:12:34.862Z,49.84
2024-01-01T14:15:03.914Z,51.22
2024-01-01T14:17:31.874Z,54.03
2024-01-01T14:19:59.845Z,57.30
2024-01-01T14:22:30.958Z,56.14
2024-01-01T14:25:00.968Z,59.81
2024-01-01T14:27:29.165Z,63.34
2024-01-01T14:29:57.402Z,67.51
2024-01-01T14:32:28.773Z,64.37
2024-01-01T14:34:57.345Z,54.11
2024-01-01T14:37:25.798Z,50.07
2024-01-01T14:39:54.486Z,50.79
2024-01-01T14:42:22.604Z,54.41
2024-01-01T14:44:53.239Z,55.16
2024-01-01T14:47:21.324Z,55.44
2024-01-01T14:49:50.901Z,59.54
2024-01-01T14:52:18.896Z,59.15
2024-01-01T14:54:46.870Z,62.45
2024-01-01T14:57:14.881Z,69.30
2024-01-01T14:59:44.279Z,62.87
2024-01-01T15:02:13.579Z,53.68
2024-01-01T15:04:43.257Z,50.18
2024-01-01T15:07:11.524Z,52.79
2024-01-01T15:09:39.805Z,53.91
2024-01-01T15:12:09.472Z,55.98
2024-01-01T15:14:37.504Z,56.42
2024-01-01T15:17:07.212Z,57.93
2024-01-01T15:19:36.303Z,58.29
2024-01-01T15:22:04.347Z,59.52
2024-01-01T15:24:32.129Z,62.40
2024-01-01T15:27:04.052Z,71.16
2024-01-01T15:29:32.700Z,70.86
2024-01-01T15:32:00.742Z,62.89
2024-01-01T15:34:31.272Z,54.39
2024-01-01T15:37:00.055Z,48.08
2024-01-01T15:39:28.011Z,49.26
2024-01-01T15:41:56.462Z,52.91
2024-01-01T15:44:25.477Z,52.83
2024-01-01T15:46:54.010Z,57.93
2024-01-01T15:49:22.401Z,59.62
2024-01-01T15:51:50.474Z,59.74
2024-01-01T15:54:18.377Z,58.61
2024-01-01T15:56:48.460Z,60.45
2024-01-01T15:59:20.392Z,64.22
2024-01-01T16:01:48.551Z,69.37
2024-01-01T16:04:16.454Z,64.15
2024-01-01T16:06:44.568Z,54.55
2024-01-01T16:09:15.892Z,54.59
2024-01-01T16:11:44.033Z,56.94
2024-01-01T16:14:12.189Z,58.06
2024-01-01T16:16:40.150Z,57.60
2024-01-01T16:19:17.151Z,57.12
2024-01-01T16:21:50.542Z,58.47
2024-01-01T16:24:19.094Z,63.92
2024-01-01T16:26:49.874Z,69.78
2024-01-01T16:29:18.323Z,62.16
2024-01-01T16:31:46.289Z,50.95
2024-01-01T16:34:14.264Z,49.34
2024-01-01T16:36:44.721Z,50.82
2024-01-01T16:39:15.473Z,52.42
2024-01-01T16:41:45.211Z,54.96
2024-01-01T16:44:16.028Z,57.11
2024-01-01T16:46:44.615Z,60.06
2024-01-01T16:49:14.433Z,59.64
2024-01-01T16:51:46.311Z,61.84
2024-01-01T16:54:14.295Z,70.76
2024-01-01T16:56:42.206Z,67.53
2024-01-01T16:59:10.666Z,56.54
2024-01-01T17:01:38.844Z,50.20
2024-01-01T17:04:06.909Z,49.75
2024-01-01T17:06:34.772Z,50.75
2024-01-01T17:09:03.614Z,53.01
2024-01-01T17:11:31.630Z,54.21
2024-01-01T17:13:59.575Z,55.95
2024-01-01T17:16:28.942Z,56.18
2024-01-01T17:18:58.196Z,60.45
2024-01-01T17:21:31.970Z,63.30
2024-01-01T17:24:00.122Z,67.39
2024-01-01T17:26:28.126Z,60.22
2024-01-01T17:28:59.065Z,51.95
2024-01-01T17:31:27.303Z,50.87
2024-01-01T17:33:56.136Z,52.13
2024-01-01T17:36:24.885Z,52.45
2024-01-01T17:38:52.774Z,53.91
2024-01-01T17:41:22.492Z,55.94
2024-01-01T17:43:52.443Z,55.96
2024-01-01T17:46:20.297Z,56.82
2024-01-01T17:48:49.578Z,59.08
2024-01-01T17:51:17.890Z,59.81
2024-01-01T17:53:47.822Z,61.24
2024-01-01T17:56:16.650Z,60.51
2024-01-01T17:58:49.053Z,60.33
2024-01-01T18:01:17.141Z,64.45
2024-01-01T18:03:48.194Z,69.91
2024-01-01T18:06:16.409Z,67.40
2024-01-01T18:08:44.696Z,59.60
2024-01-01T18:11:23.066Z,51.44
2024-01-01T18:13:52.353Z,50.54
2024-01-01T18:16:20.280Z,52.13
2024-01-01T18:18:48.985Z,53.94
2024-01-01T18:21:17.621Z,56.71
2024-01-01T18:23:45.630Z,57.25
2024-01-01T18:26:15.716Z,57.28
2024-01-01T18:28:44.148Z,58.05
2024-01-01T18:31:20.140Z,59.39
2024-01-01T18:33:49.291Z,63.01
2024-01-01T18:36:19.163Z,68.84
2024-01-01T18:38:47.688Z,66.46
2024-01-01T18:41:17.392Z,57.07
2024-01-01T18:43:48.027Z,50.53
2024-01-01T18:46:16.035Z,51.98
2024-01-01T18:48:48.044Z,52.20
2024-01-01T18:51:17.535Z,54.18
2024-01-01T18:53:47.721Z,55.52
2024-01-01T18:56:16.399Z,59.73
2024-01-01T18:58:50.570Z,61.25
2024-01-01T19:01:19.332Z,60.67
2024-01-01T19:03:49.024Z,64.83
2024-01-01T19:06:19.554Z,72.49
2024-01-01T19:08:50.011Z,64.11
2024-01-01T19:11:18.377Z,55.18
2024-01-01T19:13:46.274Z,50.14
2024-01-01T19:16:18.802Z,51.05
2024-01-01T19:18:49.734Z,51.26
2024-01-01T19:21:21.714Z,53.92
2024-01-01T19:23:50.704Z,58.03
2024-01-01T19:26:18.767Z,59.39
2024-01-01T19:28:47.812Z,58.23
2024-01-01T19:31:16.507Z,57.51
2024-01-01T19:33:44.674Z,60.86
2024-01-01T19:36:14.508Z,67.78
2024-01-01T19:38:43.144Z,67.37
2024-01-01T19:41:11.286Z,61.38
2024-01-01T19:43:39.377Z,52.24
2024-01-01T19:46:09.426Z,49.91
2024-01-01T19:48:37.915Z,52.81
2024-01-01T19:51:05.979Z,56.47
2024-01-01T19:53:35.067Z,56.39
2024-01-01T19:56:05.163Z,58.86
2024-01-01T19:58:33.243Z,60.01
2024-01-01T20:01:03.818Z,59.36
2024-01-01T20:03:31.902Z,61.31
2024-01-01T20:06:00.106Z,63.12
2024-01-01T20:08:33.530Z,70.46
2024-01-01T20:11:08.452Z,63.51
2024-01-01T20:13:39.987Z,57.58
2024-01-01T20:16:08.280Z,50.87
2024-01-01T20:18:36.378Z,50.53
2024-01-01T20:21:05.205Z,54.94
2024-01-01T20:23:33.542Z,57.04
2024-01-01T20:26:01.554Z,56.98
2024-01-01T20:28:29.550Z,57.35
2024-01-01T20:30:59.043Z,59.16
2024-01-01T20:33:27.120Z,60.20
2024-01-01T20:35:55.163Z,61.91
2024-01-01T20:38:23.354Z,70.74
2024-01-01T20:40:51.568Z,73.29
2024-01-01T20:43:19.445Z,68.26
2024-01-01T20:45:47.394Z,59.33
2024-01-01T20:48:15.294Z,51.20
2024-01-01T20:50:44.044Z,50.84
2024-01-01T20:53:12.256Z,52.35
2024-01-01T20:55:40.698Z,55.58
2024-01-01T20:58:08.585Z,57.99
2024-01-01T21:00:36.411Z,58.73
2024-01-01T21:03:05.320Z,58.01
2024-01-01T21:05:33.569Z,59.96
2024-01-01T21:08:05.081Z,60.52
2024-01-01T21:10:33.827Z,67.74
2024-01-01T21:13:01.662Z,70.98
2024-01-01T21:15:29.505Z,63.80
2024-01-01T21:17:57.664Z,53.73
2024-01-01T21:20:25.678Z,50.67
2024-01-01T21:22:54.045Z,53.05
2024-01-01T21:25:22.220Z,54.56
2024-01-01T21:27:50.086Z,57.22
2024-01-01T21:30:18.154Z,59.13
2024-01-01T21:32:46.499Z,59.68
2024-01-01T21:35:17.788Z,65.21
2024-01-01T21:37:46.298Z,69.62
2024-01-01T21:40:16.424Z,63.80
2024-01-01T21:42:46.997Z,54.36
2024-01-01T21:45:15.566Z,50.73
2024-01-01T21:47:43.791Z,53.96
2024-01-01T21:50:12.855Z,56.36
2024-01-01T21:52:40.852Z,60.36
2024-01-01T21:55:09.241Z,64.00
2024-01-01T21:57:37.763Z,67.03
2024-01-01T22:00:06.623Z,61.76
2024-01-01T22:02:34.759Z,52.72
2024-01-01T22:05:02.854Z,52.83
2024-01-01T22:07:31.185Z,53.46
2024-01-01T22:10:00.427Z,57.19
2024-01-01T22:12:28.310Z,60.73
2024-01-01T22:14:56.132Z,62.31
2024-01-01T22:17:24.466Z,69.38
2024-01-01T22:19:52.463Z,64.15
2024-01-01T22:22:20.591Z,59.79
2024-01-01T22:24:48.590Z,52.20
2024-01-01T22:27:16.572Z,51.16
2024-01-01T22:29:45.217Z,53.09
2024-01-01T22:32:13.102Z,57.76
2024-01-01T22:34:41.342Z,60.17
2024-01-01T22:37:09.333Z,62.70
2024-01-01T22:39:37.242Z,70.35
2024-01-01T22:42:05.273Z,67.33
2024-01-01T22:44:33.488Z,61.13
2024-01-01T22:47:02.018Z,51.94
2024-01-01T22:49:30.089Z,51.50
2024-01-01T22:51:57.944Z,52.98
2024-01-01T22:54:25.827Z,55.53
2024-01-01T22:56:53.586Z,59.67
2024-01-01T22:59:21.776Z,59.44
2024-01-01T23:01:50.301Z,61.72
2024-01-01T23:04:18.345Z,68.41
2024-01-01T23:06:46.718Z,63.75
2024-01-01T23:09:14.726Z,58.90
2024-01-01T23:11:43.375Z,52.32
2024-01-01T23:14:11.249Z,53.06
2024-01-01T23:16:39.281Z,56.76
2024-01-01T23:19:08.513Z,60.74
2024-01-01T23:21:36.661Z,65.41
2024-01-01T23:24:04.902Z,64.36
2024-01-01T23:26:33.139Z,53.93
2024-01-01T23:29:02.321Z,52.35
2024-01-01T23:31:30.789Z,53.25
2024-01-01T23:34:05.243Z,55.14
2024-01-01T23:36:42.509Z,60.74
2024-01-01T23:39:10.609Z,64.29
2024-01-01T23:41:38.591Z,62.37
2024-01-01T23:44:07.062Z,57.11
2024-01-01T23:46:37.283Z,53.39
2024-01-01T23:49:05.608Z,55.29
2024-01-01T23:51:33.556Z,56.59
2024-01-01T23:54:02.726Z,61.69
2024-01-01T23:56:32.359Z,64.07
2024-01-01T23:59:00.636Z,61.94
